createdAt,value
2017-08-27T00:00:36.615Z,17.97
2017-08-27T00:03:04.108Z,17.37
2017-08-27T00:05:31.645Z,17.53
2017-08-27T00:07:59.154Z,16.57
2017-08-27T00:10:26.816Z,18.07
2017-08-27T00:12:54.367Z,16.80
2017-08-27T00:15:21.864Z,16.57
2017-08-27T00:17:49.368Z,16.40
2017-08-27T00:20:16.887Z,16.57
2017-08-27T00:22:44.435Z,15.17
2017-08-27T00:25:11.953Z,14.20
2017-08-27T00:27:39.451Z,16.00
2017-08-27T00:30:06.980Z,15.57
2017-08-27T00:32:34.532Z,15.00
2017-08-27T00:35:02.129Z,15.00
2017-08-27T00:37:29.628Z,15.63
2017-08-27T00:39:57.118Z,18.13
2017-08-27T00:42:24.665Z,16.90
2017-08-27T00:44:52.158Z,17.20
2017-08-27T00:47:19.660Z,16.13
2017-08-27T00:49:47.186Z,18.60
2017-08-27T00:52:14.732Z,15.97
2017-08-27T00:54:42.260Z,16.90
2017-08-27T00:57:09.754Z,16.07
2017-08-27T00:59:37.300Z,16.30
2017-08-27T01:02:04.803Z,17.47
2017-08-27T01:04:32.296Z,16.53
2017-08-27T01:06:59.851Z,16.33
2017-08-27T01:09:27.436Z,16.30
2017-08-27T01:11:54.996Z,16.00
2017-08-27T01:14:22.559Z,16.47
2017-08-27T01:16:50.113Z,16.37
2017-08-27T01:19:17.628Z,18.00
2017-08-27T01:21:45.123Z,15.13
2017-08-27T01:24:12.704Z,16.40
2017-08-27T01:26:40.197Z,16.87
2017-08-27T01:29:07.694Z,15.60
2017-08-27T01:31:35.271Z,14.70
2017-08-27T01:34:02.765Z,15.23
2017-08-27T01:36:30.368Z,17.10
2017-08-27T01:38:57.872Z,17.53
2017-08-27T01:41:25.380Z,17.07
2017-08-27T01:43:52.943Z,16.07
2017-08-27T01:46:20.523Z,17.70
2017-08-27T01:48:48.066Z,18.00
2017-08-27T01:51:15.563Z,17.40
2017-08-27T01:53:43.190Z,17.23
2017-08-27T01:56:10.704Z,17.70
2017-08-27T01:58:38.288Z,17.17
2017-08-27T02:01:05.809Z,16.17
2017-08-27T02:03:33.304Z,16.60
2017-08-27T02:06:00.868Z,16.87
2017-08-27T02:08:28.389Z,17.60
2017-08-27T02:10:55.988Z,16.63
2017-08-27T02:13:23.503Z,16.80
2017-08-27T02:15:50.999Z,17.97
2017-08-27T02:18:18.555Z,17.10
2017-08-27T02:20:46.122Z,17.00
2017-08-27T02:23:13.635Z,17.70
2017-08-27T02:25:41.160Z,17.17
2017-08-27T02:28:08.661Z,17.00
2017-08-27T02:30:36.241Z,17.87
2017-08-27T02:33:03.739Z,18.40
2017-08-27T02:35:31.363Z,17.40
2017-08-27T02:37:58.860Z,17.10
2017-08-27T02:40:26.385Z,16.77
2017-08-27T02:42:53.888Z,17.57
2017-08-27T02:45:21.429Z,17.40
2017-08-27T02:47:48.965Z,18.30
2017-08-27T02:50:16.461Z,16.73
2017-08-27T02:52:43.956Z,18.50
2017-08-27T02:55:11.490Z,17.57
2017-08-27T02:57:38.987Z,17.93
2017-08-27T03:00:06.536Z,17.90
2017-08-27T03:02:34.023Z,18.50
2017-08-27T03:05:01.526Z,18.33
2017-08-27T03:07:29.120Z,19.30
2017-08-27T03:09:56.680Z,18.20
2017-08-27T03:12:24.238Z,19.37
2017-08-27T03:14:51.767Z,18.77
2017-08-27T03:17:19.300Z,18.03
2017-08-27T03:19:46.805Z,17.80
2017-08-27T03:22:14.366Z,17.50
2017-08-27T03:24:41.921Z,17.50
2017-08-27T03:27:09.485Z,17.80
2017-08-27T03:29:37.136Z,17.70
2017-08-27T03:32:04.637Z,18.03
2017-08-27T03:34:32.171Z,18.17
2017-08-27T03:36:59.664Z,18.83
2017-08-27T03:39:27.185Z,17.17
2017-08-27T03:41:54.690Z,17.90
2017-08-27T03:44:22.188Z,16.97
2017-08-27T03:46:49.798Z,17.10
2017-08-27T03:49:17.299Z,16.40
2017-08-27T03:51:44.859Z,17.33
2017-08-27T03:54:12.380Z,16.90
2017-08-27T03:56:39.887Z,18.80
2017-08-27T03:59:07.401Z,18.60
2017-08-27T04:01:34.885Z,17.27
2017-08-27T04:04:02.449Z,18.10
2017-08-27T04:06:29.944Z,18.60
2017-08-27T04:08:57.441Z,17.10
2017-08-27T04:11:24.967Z,17.20
2017-08-27T04:13:52.472Z,18.80
2017-08-27T04:16:19.973Z,17.33
2017-08-27T04:18:47.496Z,17.40
2017-08-27T04:21:15.020Z,16.77
2017-08-27T04:23:42.604Z,17.67
2017-08-27T04:26:10.164Z,16.80
2017-08-27T04:28:37.725Z,19.70
2017-08-27T04:31:05.284Z,16.30
2017-08-27T04:33:32.790Z,17.90
2017-08-27T04:36:00.316Z,17.73
2017-08-27T04:38:27.812Z,16.97
2017-08-27T04:40:55.315Z,17.53
2017-08-27T04:43:22.883Z,16.57
2017-08-27T04:45:50.382Z,18.03
2017-08-27T04:48:17.945Z,16.20
2017-08-27T04:50:45.441Z,16.30
2017-08-27T04:53:13.013Z,16.73
2017-08-27T04:55:40.555Z,16.43
2017-08-27T04:58:08.049Z,14.80
2017-08-27T05:00:35.568Z,17.17
2017-08-27T05:03:03.062Z,15.80
2017-08-27T05:05:30.587Z,14.80
2017-08-27T05:07:58.120Z,17.60
2017-08-27T05:10:25.608Z,14.97
2017-08-27T05:12:53.104Z,16.10
2017-08-27T05:15:20.619Z,16.40
2017-08-27T05:17:48.175Z,17.10
2017-08-27T05:20:15.672Z,17.00
2017-08-27T05:22:43.168Z,15.30
2017-08-27T05:25:10.698Z,15.40
2017-08-27T05:27:38.197Z,14.57
2017-08-27T05:30:05.765Z,17.60
2017-08-27T05:32:33.269Z,15.40
2017-08-27T05:35:00.778Z,16.97
2017-08-27T05:37:28.306Z,16.80
2017-08-27T05:39:55.796Z,18.07
2017-08-27T05:42:23.284Z,16.33
2017-08-27T05:44:50.812Z,16.87
2017-08-27T05:47:18.308Z,14.93
2017-08-27T05:49:45.798Z,16.60
2017-08-27T05:52:13.376Z,15.93
2017-08-27T05:54:40.868Z,16.77
2017-08-27T05:57:08.361Z,14.87
2017-08-27T05:59:35.884Z,16.83
2017-08-27T06:02:03.373Z,15.67
2017-08-27T06:04:30.873Z,15.80
2017-08-27T06:06:58.404Z,13.53
2017-08-27T06:09:25.916Z,16.10
2017-08-27T06:11:53.441Z,14.83
2017-08-27T06:14:20.932Z,14.87
2017-08-27T06:16:48.525Z,14.93
2017-08-27T06:19:16.029Z,13.33
2017-08-27T06:21:43.531Z,14.23
2017-08-27T06:24:11.052Z,13.50
2017-08-27T06:26:38.548Z,14.93
2017-08-27T06:29:06.084Z,14.93
2017-08-27T06:31:33.576Z,17.60
2017-08-27T06:34:01.077Z,16.90
2017-08-27T06:36:28.609Z,15.53
2017-08-27T06:38:56.169Z,15.90
2017-08-27T06:41:23.744Z,14.93
2017-08-27T06:43:51.288Z,16.07
2017-08-27T06:46:18.793Z,15.00
2017-08-27T06:48:46.297Z,15.00
2017-08-27T06:51:13.857Z,16.67
2017-08-27T06:53:41.373Z,16.47
2017-08-27T06:56:08.880Z,16.10
2017-08-27T06:58:36.445Z,14.27
2017-08-27T07:01:03.944Z,16.87
2017-08-27T07:03:31.551Z,15.97
2017-08-27T07:05:59.119Z,16.70
2017-08-27T07:08:26.688Z,17.10
2017-08-27T07:10:54.185Z,17.07
2017-08-27T07:13:21.692Z,18.83
2017-08-27T07:15:49.246Z,17.70
2017-08-27T07:18:16.751Z,17.47
2017-08-27T07:20:44.368Z,17.90
2017-08-27T07:23:11.906Z,17.00
2017-08-27T07:25:39.586Z,18.50
2017-08-27T07:28:07.128Z,16.73
2017-08-27T07:30:34.692Z,17.03
2017-08-27T07:33:02.220Z,16.83
2017-08-27T07:35:29.729Z,16.40
2017-08-27T07:37:57.286Z,15.63
2017-08-27T07:40:24.842Z,18.97
2017-08-27T07:42:52.370Z,17.57
2017-08-27T07:45:19.926Z,11.50
2017-08-27T07:47:47.501Z,10.90
2017-08-27T07:50:15.011Z,11.30
2017-08-27T07:52:42.616Z,12.40
2017-08-27T07:55:10.128Z,13.70
2017-08-27T07:57:37.865Z,11.30
2017-08-27T08:00:05.369Z,11.33
2017-08-27T08:02:32.912Z,12.33
2017-08-27T08:05:00.426Z,13.70
2017-08-27T08:07:27.928Z,12.17
2017-08-27T08:09:55.522Z,14.23
2017-08-27T08:12:23.030Z,12.80
2017-08-27T08:14:50.554Z,15.27
2017-08-27T08:17:18.105Z,17.17
2017-08-27T08:19:45.600Z,16.47
2017-08-27T08:22:13.096Z,12.50
2017-08-27T08:24:40.672Z,14.27
2017-08-27T08:27:08.248Z,14.30
2017-08-27T08:29:35.785Z,13.53
2017-08-27T08:32:03.306Z,12.37
2017-08-27T08:34:30.805Z,14.10
2017-08-27T08:36:58.346Z,12.50
2017-08-27T08:39:25.856Z,14.40
2017-08-27T08:41:53.476Z,12.40
2017-08-27T08:44:20.984Z,13.13
2017-08-27T08:46:48.479Z,14.00
2017-08-27T08:49:16.769Z,14.20
2017-08-27T08:51:44.332Z,14.47
2017-08-27T08:54:12.006Z,12.67
2017-08-27T08:56:39.548Z,12.30
2017-08-27T08:59:07.050Z,15.43
2017-08-27T09:01:34.567Z,15.60
2017-08-27T09:04:02.128Z,15.43
2017-08-27T09:06:29.684Z,15.23
2017-08-27T09:08:57.194Z,16.17
2017-08-27T09:11:24.713Z,15.87
2017-08-27T09:13:52.210Z,16.00
2017-08-27T09:16:19.728Z,16.10
2017-08-27T09:18:47.285Z,16.20
2017-08-27T09:21:14.848Z,16.53
2017-08-27T09:23:42.381Z,14.20
2017-08-27T09:26:09.951Z,14.10
2017-08-27T09:28:37.453Z,13.00
2017-08-27T09:31:05.040Z,15.13
2017-08-27T09:33:32.531Z,13.73
2017-08-27T09:36:00.053Z,14.43
2017-08-27T09:38:27.549Z,13.53
2017-08-27T09:40:55.192Z,14.43
2017-08-27T09:43:22.745Z,12.10
2017-08-27T09:45:50.253Z,13.83
2017-08-27T09:48:17.893Z,13.23
2017-08-27T09:50:45.402Z,12.83
2017-08-27T09:53:12.934Z,14.60
2017-08-27T09:55:40.544Z,16.63
2017-08-27T09:58:08.221Z,13.03
2017-08-27T10:00:35.717Z,14.73
2017-08-27T10:03:03.227Z,13.23
2017-08-27T10:05:30.746Z,16.07
2017-08-27T10:07:58.247Z,16.63
2017-08-27T10:10:25.769Z,14.87
2017-08-27T10:12:53.355Z,15.53
2017-08-27T10:15:20.883Z,14.63
2017-08-27T10:17:48.455Z,15.37
2017-08-27T10:20:15.972Z,14.57
2017-08-27T10:22:43.579Z,14.60
2017-08-27T10:25:11.074Z,12.73
2017-08-27T10:27:38.576Z,13.40
2017-08-27T10:30:06.173Z,13.30
2017-08-27T10:32:33.730Z,13.47
2017-08-27T10:35:01.257Z,15.17
2017-08-27T10:37:28.788Z,14.53
2017-08-27T10:39:56.305Z,14.97
2017-08-27T10:42:23.809Z,13.00
2017-08-27T10:44:51.346Z,12.60
2017-08-27T10:47:19.789Z,12.60
2017-08-27T10:49:47.350Z,14.47
2017-08-27T10:52:14.845Z,13.50
2017-08-27T10:54:42.383Z,11.93
2017-08-27T10:57:10.011Z,12.60
2017-08-27T10:59:37.512Z,15.07
2017-08-27T11:02:05.032Z,13.40
2017-08-27T11:04:32.564Z,13.63
2017-08-27T11:07:00.057Z,12.23
2017-08-27T11:09:27.627Z,13.37
2017-08-27T11:11:55.166Z,12.67
2017-08-27T11:14:22.658Z,11.30
2017-08-27T11:16:50.190Z,11.67
2017-08-27T11:19:17.689Z,12.10
2017-08-27T11:21:45.240Z,13.93
2017-08-27T11:24:12.752Z,12.27
2017-08-27T11:26:40.269Z,14.10
2017-08-27T11:29:07.819Z,12.27
2017-08-27T11:31:35.440Z,12.03
2017-08-27T11:34:03.005Z,10.70
2017-08-27T11:36:30.544Z,11.73
2017-08-27T11:38:58.046Z,10.27
2017-08-27T11:41:25.589Z,11.60
2017-08-27T11:43:53.110Z,11.73
2017-08-27T11:46:20.647Z,12.00
2017-08-27T11:48:48.232Z,11.37
2017-08-27T11:51:15.784Z,11.03
2017-08-27T11:53:43.349Z,12.37
2017-08-27T11:56:10.867Z,12.30
2017-08-27T11:58:38.424Z,11.60
2017-08-27T12:01:05.913Z,11.00
2017-08-27T12:03:33.487Z,11.40
2017-08-27T12:06:01.053Z,10.67
2017-08-27T12:08:28.709Z,11.23
2017-08-27T12:10:56.218Z,10.50
2017-08-27T12:13:23.812Z,10.80
2017-08-27T12:15:51.323Z,11.67
2017-08-27T12:18:18.947Z,10.93
2017-08-27T12:20:46.448Z,10.30
2017-08-27T12:23:13.967Z,11.57
2017-08-27T12:25:41.514Z,11.70
2017-08-27T12:28:09.071Z,10.50
2017-08-27T12:30:36.616Z,10.77
2017-08-27T12:33:04.115Z,11.83
2017-08-27T12:35:31.629Z,12.50
2017-08-27T12:37:59.198Z,11.80
2017-08-27T12:40:26.712Z,12.00
2017-08-27T12:42:54.255Z,13.80
2017-08-27T12:45:21.756Z,12.40
2017-08-27T12:47:49.286Z,12.00
2017-08-27T12:50:16.812Z,12.57
2017-08-27T12:52:44.308Z,12.83
2017-08-27T12:55:11.857Z,12.70
2017-08-27T12:57:39.369Z,11.13
2017-08-27T13:00:06.935Z,11.87
2017-08-27T13:02:34.487Z,11.17
2017-08-27T13:05:01.987Z,12.47
2017-08-27T13:07:29.571Z,11.07
2017-08-27T13:09:57.065Z,10.73
2017-08-27T13:12:24.601Z,10.87
2017-08-27T13:14:52.141Z,11.37
2017-08-27T13:17:19.640Z,11.77
2017-08-27T13:19:47.190Z,10.53
2017-08-27T13:22:14.688Z,12.10
2017-08-27T13:24:42.197Z,12.47
2017-08-27T13:27:09.765Z,12.97
2017-08-27T13:29:37.309Z,11.67
2017-08-27T13:32:04.876Z,11.70
2017-08-27T13:34:32.381Z,12.50
2017-08-27T13:36:59.973Z,12.00
2017-08-27T13:39:27.497Z,12.97
2017-08-27T13:41:55.122Z,12.17
2017-08-27T13:44:22.632Z,13.30
2017-08-27T13:46:50.137Z,12.20
2017-08-27T13:49:17.676Z,11.03
2017-08-27T13:51:45.217Z,12.00
2017-08-27T13:54:12.836Z,11.80
2017-08-27T13:56:40.348Z,12.13
2017-08-27T13:59:07.880Z,12.43
2017-08-27T14:01:35.486Z,11.87
2017-08-27T14:04:03.003Z,11.00
2017-08-27T14:06:30.544Z,12.63
2017-08-27T14:08:58.060Z,11.97
2017-08-27T14:11:25.596Z,11.50
2017-08-27T14:13:53.095Z,11.23
2017-08-27T14:16:20.626Z,12.37
2017-08-27T14:18:48.145Z,13.00
2017-08-27T14:21:15.644Z,13.30
2017-08-27T14:23:43.161Z,12.10
2017-08-27T14:26:10.693Z,12.30
2017-08-27T14:28:38.186Z,12.57
2017-08-27T14:31:05.742Z,12.20
2017-08-27T14:33:33.245Z,10.30
2017-08-27T14:36:00.792Z,11.53
2017-08-27T14:38:28.330Z,10.70
2017-08-27T14:40:55.842Z,12.53
2017-08-27T14:43:23.444Z,12.13
2017-08-27T14:45:50.953Z,12.37
2017-08-27T14:48:18.498Z,10.73
2017-08-27T14:50:46.004Z,11.27
2017-08-27T14:53:13.512Z,11.70
2017-08-27T14:55:41.058Z,11.30
2017-08-27T14:58:08.628Z,12.10
2017-08-27T15:00:36.157Z,11.20
2017-08-27T15:03:03.652Z,12.30
2017-08-27T15:05:31.275Z,11.93
2017-08-27T15:07:58.790Z,11.57
2017-08-27T15:10:26.297Z,13.13
2017-08-27T15:12:53.883Z,12.40
2017-08-27T15:15:21.406Z,56.43
2017-08-27T15:17:48.952Z,142.77
2017-08-27T15:20:16.496Z,67.77
2017-08-27T15:22:44.022Z,30.63
2017-08-27T15:25:11.541Z,29.30
2017-08-27T15:27:39.073Z,15.73
2017-08-27T15:30:06.573Z,11.90
2017-08-27T15:32:34.216Z,10.90
2017-08-27T15:35:01.727Z,10.70
2017-08-27T15:37:29.256Z,10.90
2017-08-27T15:39:56.785Z,12.10
2017-08-27T15:42:24.325Z,11.60
2017-08-27T15:44:51.924Z,12.40
2017-08-27T15:47:19.495Z,13.47
2017-08-27T15:49:47.041Z,11.10
2017-08-27T15:52:14.549Z,12.10
2017-08-27T15:54:42.086Z,11.60
2017-08-27T15:57:09.580Z,27.17
2017-08-27T15:59:37.130Z,29.43
2017-08-27T16:02:04.723Z,23.17
2017-08-27T16:04:32.251Z,153.63
2017-08-27T16:06:59.790Z,100.27
2017-08-27T16:09:27.289Z,87.43
2017-08-27T16:11:54.824Z,25.37
2017-08-27T16:14:23.124Z,19.77
2017-08-27T16:16:50.645Z,33.30
2017-08-27T16:19:18.188Z,52.43
2017-08-27T16:21:45.689Z,39.20
2017-08-27T16:24:13.216Z,23.10
2017-08-27T16:26:40.736Z,35.07
2017-08-27T16:29:08.251Z,26.63
2017-08-27T16:31:35.783Z,16.50
2017-08-27T16:34:03.339Z,24.73
2017-08-27T16:36:30.853Z,12.40
2017-08-27T16:38:58.376Z,11.73
2017-08-27T16:41:26.693Z,11.53
2017-08-27T16:43:54.194Z,10.57
2017-08-27T16:46:21.733Z,11.00
2017-08-27T16:48:49.241Z,13.00
2017-08-27T16:51:16.775Z,11.37
2017-08-27T16:53:44.305Z,21.43
2017-08-27T16:56:11.824Z,20.10
2017-08-27T16:58:39.352Z,12.40
2017-08-27T17:01:06.853Z,11.90
2017-08-27T17:03:34.359Z,12.13
2017-08-27T17:06:01.960Z,10.43
2017-08-27T17:08:29.454Z,10.23
2017-08-27T17:10:56.983Z,9.80
2017-08-27T17:13:24.493Z,9.80
2017-08-27T17:15:52.772Z,11.17
2017-08-27T17:18:20.314Z,10.40
2017-08-27T17:20:47.860Z,9.80
2017-08-27T17:23:15.410Z,10.03
2017-08-27T17:25:42.921Z,9.50
2017-08-27T17:28:10.412Z,9.33
2017-08-27T17:30:37.986Z,10.47
2017-08-27T17:33:05.496Z,10.70
2017-08-27T17:35:33.020Z,9.93
2017-08-27T17:38:00.552Z,10.53
2017-08-27T17:40:28.115Z,10.43
2017-08-27T17:42:55.637Z,10.10
2017-08-27T17:45:23.149Z,11.27
2017-08-27T17:47:50.683Z,11.90
2017-08-27T17:50:18.201Z,11.03
2017-08-27T17:52:45.750Z,11.57
2017-08-27T17:55:13.285Z,10.13
2017-08-27T17:57:40.785Z,11.23
2017-08-27T18:00:09.237Z,10.70
2017-08-27T18:02:36.749Z,10.50
2017-08-27T18:05:04.307Z,11.17
2017-08-27T18:07:32.497Z,11.83
2017-08-27T18:10:00.111Z,14.53
2017-08-27T18:12:27.641Z,12.33
2017-08-27T18:14:55.165Z,11.27
2017-08-27T18:17:22.699Z,11.67
2017-08-27T18:19:50.206Z,10.67
2017-08-27T18:22:17.724Z,12.57
2017-08-27T18:24:45.245Z,12.17
2017-08-27T18:27:12.831Z,11.57
2017-08-27T18:29:40.353Z,12.20
2017-08-27T18:32:07.914Z,11.93
2017-08-27T18:34:35.474Z,12.53
2017-08-27T18:37:03.013Z,11.53
2017-08-27T18:39:30.551Z,13.00
2017-08-27T18:41:58.091Z,16.30
2017-08-27T18:44:25.619Z,13.13
2017-08-27T18:46:53.148Z,12.50
2017-08-27T18:49:20.700Z,13.00
2017-08-27T18:51:48.210Z,13.47
2017-08-27T18:54:15.743Z,12.77
2017-08-27T18:56:43.241Z,12.20
2017-08-27T18:59:10.745Z,12.83
2017-08-27T19:01:38.282Z,13.20
2017-08-27T19:04:06.569Z,14.93
2017-08-27T19:06:34.129Z,15.07
2017-08-27T19:09:01.704Z,14.53
2017-08-27T19:11:29.253Z,13.90
2017-08-27T19:13:56.839Z,15.50
2017-08-27T19:16:24.343Z,12.90
2017-08-27T19:18:51.893Z,14.07
2017-08-27T19:21:19.434Z,14.67
2017-08-27T19:23:47.372Z,14.70
2017-08-27T19:26:14.880Z,13.77
2017-08-27T19:28:42.391Z,15.17
2017-08-27T19:31:09.917Z,13.60
2017-08-27T19:33:37.472Z,13.93
2017-08-27T19:36:05.004Z,15.30
2017-08-27T19:38:32.523Z,13.60
2017-08-27T19:41:00.068Z,14.20
2017-08-27T19:43:27.652Z,14.27
2017-08-27T19:45:55.165Z,14.43
2017-08-27T19:48:22.709Z,14.40
2017-08-27T19:50:50.245Z,14.40
2017-08-27T19:53:17.810Z,14.43
2017-08-27T19:55:45.327Z,15.03
2017-08-27T19:58:12.896Z,15.50
2017-08-27T20:00:40.418Z,14.90
2017-08-27T20:03:08.706Z,16.00
2017-08-27T20:05:36.303Z,15.97
2017-08-27T20:08:03.836Z,16.10
2017-08-27T20:10:31.342Z,14.53
2017-08-27T20:12:58.906Z,15.30
2017-08-27T20:15:26.460Z,16.10
2017-08-27T20:17:53.985Z,16.57
2017-08-27T20:20:21.545Z,16.23
2017-08-27T20:22:49.133Z,16.53
2017-08-27T20:25:16.644Z,15.57
2017-08-27T20:27:44.211Z,15.30
2017-08-27T20:30:11.736Z,15.07
2017-08-27T20:32:40.023Z,15.53
2017-08-27T20:35:07.529Z,16.57
2017-08-27T20:37:35.133Z,17.20
2017-08-27T20:40:02.709Z,17.57
2017-08-27T20:42:30.371Z,15.97
2017-08-27T20:44:57.921Z,16.60
2017-08-27T20:47:25.443Z,16.20
2017-08-27T20:49:53.048Z,16.73
2017-08-27T20:52:20.542Z,17.33
2017-08-27T20:54:48.148Z,16.70
2017-08-27T20:57:15.674Z,17.07
2017-08-27T20:59:43.181Z,17.00
2017-08-27T21:02:10.819Z,16.23
2017-08-27T21:07:12.365Z,15.80
2017-08-27T21:09:40.654Z,17.17
2017-08-27T21:12:08.165Z,17.13
2017-08-27T21:14:35.720Z,18.90
2017-08-27T21:17:03.220Z,18.60
2017-08-27T21:19:30.831Z,17.03
2017-08-27T21:21:58.345Z,18.50
2017-08-27T21:24:26.648Z,16.80
2017-08-27T21:26:54.194Z,19.30
2017-08-27T21:29:21.705Z,18.67
2017-08-27T21:31:49.328Z,18.60
2017-08-27T21:34:16.842Z,18.73
2017-08-27T21:36:44.434Z,18.53
2017-08-27T21:39:11.976Z,18.00
2017-08-27T21:41:39.472Z,17.73
2017-08-27T21:44:07.129Z,17.80
2017-08-27T21:46:34.641Z,17.60
2017-08-27T21:49:02.140Z,18.47
2017-08-27T21:51:29.682Z,19.20
2017-08-27T21:53:57.210Z,18.20
2017-08-27T21:56:24.737Z,17.37
2017-08-27T21:58:52.237Z,18.13
2017-08-27T22:01:19.792Z,18.87
2017-08-27T22:03:47.348Z,18.00
2017-08-27T22:06:14.869Z,18.07
2017-08-27T22:08:42.376Z,18.03
2017-08-27T22:11:09.916Z,17.67
2017-08-27T22:13:37.413Z,17.13
2017-08-27T22:16:04.946Z,18.57
2017-08-27T22:18:32.465Z,16.50
2017-08-27T22:20:59.968Z,17.60
2017-08-27T22:23:27.505Z,16.80
2017-08-27T22:25:55.036Z,17.40
2017-08-27T22:28:22.552Z,19.50
2017-08-27T22:30:50.049Z,18.70
2017-08-27T22:33:17.589Z,19.10
2017-08-27T22:35:45.118Z,17.33
2017-08-27T22:38:12.672Z,18.63
2017-08-27T22:40:40.225Z,18.03
2017-08-27T22:43:07.742Z,16.90
2017-08-27T22:45:35.252Z,17.60
2017-08-27T22:48:02.756Z,17.67
2017-08-27T22:50:30.285Z,19.03
2017-08-27T22:52:57.804Z,15.30
2017-08-27T22:55:25.381Z,18.23
2017-08-27T22:57:52.930Z,17.90
2017-08-27T23:00:20.442Z,16.97
2017-08-27T23:02:47.972Z,17.63
2017-08-27T23:05:15.461Z,17.37
2017-08-27T23:07:42.971Z,16.27
2017-08-27T23:10:10.508Z,16.90
2017-08-27T23:12:38.816Z,17.50
2017-08-27T23:15:06.342Z,17.33
2017-08-27T23:17:33.872Z,17.07
2017-08-27T23:20:01.483Z,17.70
2017-08-27T23:22:29.138Z,17.00
2017-08-27T23:24:56.642Z,16.60
2017-08-27T23:27:24.141Z,16.40
2017-08-27T23:29:51.670Z,18.20
2017-08-27T23:32:19.186Z,16.57
2017-08-27T23:34:46.692Z,16.13
2017-08-27T23:37:14.241Z,16.47
2017-08-27T23:39:41.735Z,15.97
2017-08-27T23:42:09.279Z,16.20
2017-08-27T23:44:36.808Z,16.37
2017-08-27T23:47:04.313Z,16.73
2017-08-27T23:49:31.834Z,16.33
2017-08-27T23:51:59.325Z,15.90
2017-08-27T23:54:26.881Z,17.50
2017-08-27T23:56:54.377Z,17.60
2017-08-27T23:59:21.903Z,19.07
